DAL410 KBOS-CYHZ
Flight info
| Callsign | DAL410 |
|---|---|
| Flight time | 0h 59m |
| Altitude | 31000 |
| Route | LBSTA8 LBSTA DCT ALLEX FUNDY5 |
| Aircraft | B738/M-SDE2E3FGHIRWXY/LB1 |
Departure
| Time | 2026-05-04 22:12 |
|---|---|
| Airport | Boston Logan International Airport (KBOS) |
Arrival
| Time | 2026-05-04 23:11 |
|---|---|
| Airport | Halifax / Stanfield International Airport (CYHZ) |
| Time | Latitude | Longitude | Altitude | Speed | Heading |
|---|---|---|---|---|---|
| 2026-05-04 21:48 | 42.36267 | -71.02432 | 24 ft | 0 kts | 273° |
| 2026-05-04 21:59 | 42.36266 | -71.02417 | 30 ft | 5 kts | 273° |
| 2026-05-04 22:00 | 42.36264 | -71.02373 | 30 ft | 4 kts | 271° |
| 2026-05-04 22:00 | 42.36265 | -71.02347 | 29 ft | 2 kts | 242° |
| 2026-05-04 22:00 | 42.36274 | -71.02340 | 28 ft | 2 kts | 188° |
| 2026-05-04 22:00 | 42.36275 | -71.02340 | 28 ft | 0 kts | 192° |
| 2026-05-04 22:02 | 42.36268 | -71.02341 | 29 ft | 5 kts | 186° |
| 2026-05-04 22:02 | 42.36231 | -71.02344 | 29 ft | 5 kts | 183° |
| 2026-05-04 22:02 | 42.36202 | -71.02347 | 27 ft | 0 kts | 184° |
| 2026-05-04 22:03 | 42.36175 | -71.02349 | 28 ft | 10 kts | 184° |
| 2026-05-04 22:03 | 42.36083 | -71.02318 | 27 ft | 15 kts | 153° |
| 2026-05-04 22:03 | 42.36016 | -71.02219 | 28 ft | 15 kts | 121° |
| 2026-05-04 22:04 | 42.35954 | -71.02078 | 24 ft | 19 kts | 121° |
| 2026-05-04 22:04 | 42.35887 | -71.01929 | 24 ft | 18 kts | 120° |
| 2026-05-04 22:04 | 42.35844 | -71.01772 | 27 ft | 18 kts | 102° |
| 2026-05-04 22:04 | 42.35824 | -71.01613 | 24 ft | 16 kts | 82° |
| 2026-05-04 22:05 | 42.35921 | -71.01535 | 24 ft | 20 kts | 19° |
| 2026-05-04 22:05 | 42.36052 | -71.01472 | 26 ft | 20 kts | 19° |
| 2026-05-04 22:05 | 42.36180 | -71.01410 | 28 ft | 19 kts | 19° |
| 2026-05-04 22:05 | 42.36305 | -71.01350 | 29 ft | 19 kts | 19° |
| 2026-05-04 22:06 | 42.36424 | -71.01291 | 26 ft | 18 kts | 20° |
| 2026-05-04 22:06 | 42.36541 | -71.01236 | 27 ft | 17 kts | 19° |
| 2026-05-04 22:06 | 42.36652 | -71.01181 | 29 ft | 17 kts | 20° |
| 2026-05-04 22:06 | 42.36761 | -71.01144 | 27 ft | 16 kts | 354° |
| 2026-05-04 22:07 | 42.36854 | -71.01222 | 25 ft | 15 kts | 341° |
| 2026-05-04 22:07 | 42.36944 | -71.01159 | 25 ft | 16 kts | 40° |
| 2026-05-04 22:07 | 42.37046 | -71.01073 | 26 ft | 19 kts | 26° |
| 2026-05-04 22:07 | 42.37152 | -71.01004 | 27 ft | 14 kts | 26° |
| 2026-05-04 22:08 | 42.37231 | -71.00952 | 26 ft | 12 kts | 26° |
| 2026-05-04 22:08 | 42.37337 | -71.00891 | 26 ft | 23 kts | 20° |
| 2026-05-04 22:08 | 42.37488 | -71.00818 | 26 ft | 23 kts | 19° |
| 2026-05-04 22:08 | 42.37636 | -71.00746 | 26 ft | 22 kts | 20° |
| 2026-05-04 22:09 | 42.37777 | -71.00678 | 24 ft | 19 kts | 19° |
| 2026-05-04 22:09 | 42.37828 | -71.00555 | 26 ft | 17 kts | 106° |
| 2026-05-04 22:09 | 42.37761 | -71.00489 | 28 ft | 9 kts | 198° |
| 2026-05-04 22:09 | 42.37752 | -71.00493 | 26 ft | 0 kts | 199° |
| 2026-05-04 22:11 | 42.37741 | -71.00498 | 25 ft | 12 kts | 199° |
| 2026-05-04 22:11 | 42.37394 | -71.00665 | 27 ft | 92 kts | 200° |
| 2026-05-04 22:11 | 42.36564 | -71.01077 | 40 ft | 159 kts | 201° |
| 2026-05-04 22:12 | 42.35825 | -71.01440 | 305 ft | 180 kts | 201° |
| 2026-05-04 22:12 | 42.34530 | -71.01949 | 790 ft | 207 kts | 190° |
| 2026-05-04 22:12 | 42.32634 | -71.01421 | 1461 ft | 221 kts | 152° |
| 2026-05-04 22:12 | 42.31568 | -70.99961 | 1890 ft | 226 kts | 129° |
| 2026-05-04 22:13 | 42.30671 | -70.98190 | 2213 ft | 230 kts | 127° |
| 2026-05-04 22:13 | 42.30220 | -70.96843 | 2461 ft | 237 kts | 106° |
| 2026-05-04 22:13 | 42.30275 | -70.94612 | 2627 ft | 253 kts | 69° |
| 2026-05-04 22:13 | 42.30932 | -70.92371 | 2862 ft | 259 kts | 74° |
| 2026-05-04 22:14 | 42.31395 | -70.89996 | 3183 ft | 263 kts | 72° |
| 2026-05-04 22:14 | 42.32082 | -70.87686 | 3507 ft | 267 kts | 69° |
| 2026-05-04 22:14 | 42.32661 | -70.85227 | 3718 ft | 285 kts | 75° |
| 2026-05-04 22:14 | 42.33126 | -70.82570 | 4419 ft | 292 kts | 78° |
| 2026-05-04 22:15 | 42.33544 | -70.79884 | 5288 ft | 292 kts | 78° |
| 2026-05-04 22:15 | 42.34124 | -70.77246 | 6002 ft | 296 kts | 59° |
| 2026-05-04 22:15 | 42.35444 | -70.75182 | 6764 ft | 288 kts | 30° |
| 2026-05-04 22:15 | 42.37210 | -70.74048 | 7592 ft | 278 kts | 12° |
| 2026-05-04 22:16 | 42.39067 | -70.73286 | 8386 ft | 280 kts | 11° |
| 2026-05-04 22:16 | 42.40934 | -70.72530 | 9195 ft | 281 kts | 11° |
| 2026-05-04 22:16 | 42.42806 | -70.71761 | 9994 ft | 281 kts | 11° |
| 2026-05-04 22:16 | 42.44709 | -70.70976 | 10471 ft | 294 kts | 10° |
| 2026-05-04 22:17 | 42.46769 | -70.70279 | 10633 ft | 315 kts | 7° |
| 2026-05-04 22:17 | 42.48986 | -70.69633 | 10807 ft | 336 kts | 7° |
| 2026-05-04 22:17 | 42.51345 | -70.68959 | 10966 ft | 356 kts | 7° |
| 2026-05-04 22:17 | 42.53830 | -70.68238 | 11238 ft | 371 kts | 8° |
| 2026-05-04 22:18 | 42.56374 | -70.67482 | 11764 ft | 378 kts | 8° |
| 2026-05-04 22:18 | 42.58954 | -70.66705 | 12413 ft | 381 kts | 8° |
| 2026-05-04 22:18 | 42.61553 | -70.65919 | 13053 ft | 385 kts | 8° |
| 2026-05-04 22:18 | 42.64186 | -70.65124 | 13662 ft | 390 kts | 8° |
| 2026-05-04 22:19 | 42.66843 | -70.64323 | 14227 ft | 393 kts | 8° |
| 2026-05-04 22:19 | 42.69499 | -70.63597 | 14835 ft | 393 kts | 5° |
| 2026-05-04 22:19 | 42.72203 | -70.63026 | 15449 ft | 394 kts | 4° |
| 2026-05-04 22:19 | 42.74923 | -70.62477 | 16009 ft | 397 kts | 4° |
| 2026-05-04 22:20 | 42.77659 | -70.61785 | 16550 ft | 405 kts | 13° |
| 2026-05-04 22:20 | 42.80186 | -70.59984 | 17084 ft | 419 kts | 33° |
| 2026-05-04 22:20 | 42.82214 | -70.57076 | 17641 ft | 430 kts | 52° |
| 2026-05-04 22:20 | 42.83863 | -70.53658 | 18181 ft | 434 kts | 53° |
| 2026-05-04 22:21 | 42.85489 | -70.50160 | 18595 ft | 438 kts | 54° |
| 2026-05-04 22:21 | 42.87112 | -70.46631 | 19073 ft | 440 kts | 54° |
| 2026-05-04 22:21 | 42.88744 | -70.43092 | 19579 ft | 441 kts | 54° |
| 2026-05-04 22:21 | 42.90387 | -70.39549 | 20056 ft | 443 kts | 53° |
| 2026-05-04 22:22 | 42.92048 | -70.35992 | 20503 ft | 445 kts | 53° |
| 2026-05-04 22:22 | 42.93699 | -70.32468 | 20961 ft | 447 kts | 53° |
| 2026-05-04 22:22 | 42.95384 | -70.28883 | 21406 ft | 449 kts | 53° |
| 2026-05-04 22:22 | 42.97076 | -70.25282 | 21841 ft | 451 kts | 53° |
| 2026-05-04 22:23 | 42.98776 | -70.21664 | 22259 ft | 453 kts | 53° |
| 2026-05-04 22:23 | 43.00483 | -70.18026 | 22676 ft | 455 kts | 53° |
| 2026-05-04 22:23 | 43.02194 | -70.14377 | 23071 ft | 458 kts | 53° |
| 2026-05-04 22:23 | 43.03914 | -70.10701 | 23450 ft | 460 kts | 53° |
| 2026-05-04 22:24 | 43.05642 | -70.07003 | 23766 ft | 462 kts | 53° |
| 2026-05-04 22:24 | 43.07377 | -70.03286 | 24089 ft | 464 kts | 53° |
| 2026-05-04 22:24 | 43.09118 | -69.99549 | 24392 ft | 466 kts | 53° |
| 2026-05-04 22:24 | 43.10869 | -69.95789 | 24433 ft | 472 kts | 53° |
| 2026-05-04 22:25 | 43.12634 | -69.91995 | 24375 ft | 471 kts | 53° |
| 2026-05-04 22:25 | 43.14382 | -69.88223 | 24338 ft | 467 kts | 53° |
| 2026-05-04 22:25 | 43.16092 | -69.84531 | 24343 ft | 465 kts | 53° |
| 2026-05-04 22:25 | 43.17826 | -69.80784 | 24347 ft | 466 kts | 53° |
| 2026-05-04 22:26 | 43.19562 | -69.77031 | 24414 ft | 466 kts | 53° |
| 2026-05-04 22:26 | 43.21297 | -69.73275 | 24536 ft | 467 kts | 53° |
| 2026-05-04 22:26 | 43.23037 | -69.69506 | 24648 ft | 469 kts | 53° |
| 2026-05-04 22:26 | 43.24781 | -69.65723 | 24770 ft | 469 kts | 54° |
| 2026-05-04 22:27 | 43.26531 | -69.61921 | 24840 ft | 472 kts | 54° |
| 2026-05-04 22:27 | 43.28285 | -69.58105 | 25092 ft | 474 kts | 54° |
| 2026-05-04 22:27 | 43.30047 | -69.54267 | 25459 ft | 474 kts | 54° |
| 2026-05-04 22:27 | 43.31800 | -69.50440 | 25799 ft | 474 kts | 54° |
| 2026-05-04 22:28 | 43.33559 | -69.46597 | 26064 ft | 476 kts | 54° |
| 2026-05-04 22:28 | 43.35325 | -69.42734 | 26319 ft | 479 kts | 54° |
| 2026-05-04 22:28 | 43.37099 | -69.38849 | 26571 ft | 481 kts | 54° |
| 2026-05-04 22:28 | 43.38875 | -69.34954 | 26933 ft | 480 kts | 54° |
| 2026-05-04 22:29 | 43.40639 | -69.31077 | 27386 ft | 477 kts | 53° |
| 2026-05-04 22:29 | 43.42369 | -69.27268 | 27839 ft | 474 kts | 53° |
| 2026-05-04 22:29 | 43.44115 | -69.23421 | 28218 ft | 474 kts | 53° |
| 2026-05-04 22:29 | 43.45863 | -69.19567 | 28563 ft | 473 kts | 53° |
| 2026-05-04 22:30 | 43.47601 | -69.15730 | 28947 ft | 472 kts | 53° |
| 2026-05-04 22:30 | 43.49336 | -69.11895 | 29377 ft | 470 kts | 53° |
| 2026-05-04 22:30 | 43.51062 | -69.08074 | 29765 ft | 469 kts | 53° |
| 2026-05-04 22:30 | 43.52783 | -69.04260 | 30080 ft | 469 kts | 53° |
| 2026-05-04 22:31 | 43.54504 | -69.00441 | 30309 ft | 470 kts | 53° |
| 2026-05-04 22:31 | 43.56229 | -68.96610 | 30497 ft | 472 kts | 54° |
| 2026-05-04 22:31 | 43.57961 | -68.92759 | 30693 ft | 473 kts | 54° |
| 2026-05-04 22:31 | 43.59696 | -68.88893 | 30832 ft | 475 kts | 54° |
| 2026-05-04 22:32 | 43.61444 | -68.84996 | 30825 ft | 477 kts | 54° |
| 2026-05-04 22:32 | 43.64891 | -68.77285 | 30834 ft | 474 kts | 54° |
| 2026-05-04 22:33 | 43.68341 | -68.69548 | 30834 ft | 472 kts | 54° |
| 2026-05-04 22:33 | 43.71797 | -68.61779 | 30831 ft | 471 kts | 54° |
| 2026-05-04 22:34 | 43.75205 | -68.54100 | 30832 ft | 471 kts | 54° |
| 2026-05-04 22:34 | 43.78627 | -68.46371 | 30829 ft | 472 kts | 54° |
| 2026-05-04 22:35 | 43.82061 | -68.38592 | 30830 ft | 473 kts | 55° |
| 2026-05-04 22:35 | 43.85493 | -68.30794 | 30834 ft | 474 kts | 55° |
| 2026-05-04 22:36 | 43.88927 | -68.22974 | 30824 ft | 475 kts | 55° |
| 2026-05-04 22:36 | 43.92347 | -68.15161 | 30827 ft | 477 kts | 56° |
| 2026-05-04 22:37 | 43.95785 | -68.07287 | 30828 ft | 478 kts | 56° |
| 2026-05-04 22:37 | 43.99225 | -67.99388 | 30833 ft | 478 kts | 56° |
| 2026-05-04 22:38 | 44.02664 | -67.91467 | 30828 ft | 479 kts | 56° |
| 2026-05-04 22:38 | 44.06099 | -67.83535 | 30830 ft | 479 kts | 56° |
| 2026-05-04 22:39 | 44.09528 | -67.75596 | 30827 ft | 479 kts | 57° |
| 2026-05-04 22:39 | 44.12949 | -67.67652 | 30828 ft | 478 kts | 57° |
| 2026-05-04 22:40 | 44.16367 | -67.59692 | 30825 ft | 478 kts | 57° |
| 2026-05-04 22:40 | 44.19773 | -67.51740 | 30824 ft | 478 kts | 57° |
| 2026-05-04 22:41 | 44.23170 | -67.43787 | 30822 ft | 477 kts | 57° |
| 2026-05-04 22:41 | 44.26540 | -67.35874 | 30821 ft | 477 kts | 58° |
| 2026-05-04 22:42 | 44.29922 | -67.27910 | 30824 ft | 477 kts | 58° |
| 2026-05-04 22:42 | 44.33299 | -67.19937 | 30824 ft | 477 kts | 58° |
| 2026-05-04 22:43 | 44.36677 | -67.11939 | 30822 ft | 477 kts | 58° |
| 2026-05-04 22:43 | 44.40044 | -67.03945 | 30825 ft | 478 kts | 58° |
| 2026-05-04 22:44 | 44.42681 | -66.95452 | 30842 ft | 479 kts | 76° |
| 2026-05-04 22:44 | 44.44165 | -66.86339 | 30823 ft | 480 kts | 77° |
| 2026-05-04 22:45 | 44.45638 | -66.77264 | 30812 ft | 482 kts | 77° |
| 2026-05-04 22:45 | 44.47948 | -66.63543 | 30811 ft | 483 kts | 77° |
| 2026-05-04 22:46 | 44.49505 | -66.54375 | 30815 ft | 484 kts | 77° |
| 2026-05-04 22:46 | 44.50278 | -66.49789 | 30627 ft | 485 kts | 72° |
| 2026-05-04 22:46 | 44.51056 | -66.45169 | 30694 ft | 488 kts | 71° |
| 2026-05-04 22:47 | 44.52627 | -66.35829 | 30806 ft | 496 kts | 71° |
| 2026-05-04 22:47 | 44.54219 | -66.26303 | 30824 ft | 506 kts | 71° |
| 2026-05-04 22:48 | 44.55811 | -66.16696 | 30816 ft | 510 kts | 72° |
| 2026-05-04 22:48 | 44.57409 | -66.06973 | 30821 ft | 512 kts | 72° |
| 2026-05-04 22:49 | 44.59007 | -65.97220 | 30483 ft | 517 kts | 72° |
| 2026-05-04 22:49 | 44.59813 | -65.92282 | 29792 ft | 518 kts | 71° |
| 2026-05-04 22:49 | 44.60614 | -65.87356 | 28974 ft | 517 kts | 72° |
| 2026-05-04 22:50 | 44.61411 | -65.82441 | 28193 ft | 515 kts | 72° |
| 2026-05-04 22:50 | 44.62202 | -65.77547 | 27380 ft | 514 kts | 72° |
| 2026-05-04 22:50 | 44.62980 | -65.72720 | 26760 ft | 510 kts | 72° |
| 2026-05-04 22:50 | 44.63754 | -65.67890 | 26201 ft | 505 kts | 72° |
| 2026-05-04 22:51 | 44.64523 | -65.63089 | 25630 ft | 501 kts | 72° |
| 2026-05-04 22:51 | 44.65286 | -65.58312 | 25067 ft | 497 kts | 72° |
| 2026-05-04 22:51 | 44.66040 | -65.53591 | 24514 ft | 494 kts | 72° |
| 2026-05-04 22:51 | 44.66877 | -65.48969 | 24261 ft | 482 kts | 69° |
| 2026-05-04 22:52 | 44.67812 | -65.44425 | 24041 ft | 489 kts | 68° |
| 2026-05-04 22:52 | 44.68817 | -65.39795 | 23818 ft | 499 kts | 68° |
| 2026-05-04 22:52 | 44.69842 | -65.35106 | 23581 ft | 501 kts | 68° |
| 2026-05-04 22:52 | 44.70850 | -65.30425 | 23332 ft | 499 kts | 68° |
| 2026-05-04 22:53 | 44.71832 | -65.25777 | 22823 ft | 494 kts | 68° |
| 2026-05-04 22:53 | 44.72792 | -65.21170 | 22285 ft | 488 kts | 69° |
| 2026-05-04 22:53 | 44.73724 | -65.16655 | 21698 ft | 484 kts | 69° |
| 2026-05-04 22:53 | 44.74656 | -65.12120 | 21119 ft | 481 kts | 69° |
| 2026-05-04 22:54 | 44.75581 | -65.07603 | 20538 ft | 477 kts | 70° |
| 2026-05-04 22:54 | 44.76497 | -65.03128 | 19989 ft | 474 kts | 70° |
| 2026-05-04 22:54 | 44.77405 | -64.98681 | 19435 ft | 471 kts | 70° |
| 2026-05-04 22:54 | 44.78306 | -64.94258 | 18843 ft | 469 kts | 70° |
| 2026-05-04 22:55 | 44.79204 | -64.89842 | 18281 ft | 467 kts | 71° |
| 2026-05-04 22:55 | 44.80095 | -64.85454 | 17666 ft | 466 kts | 71° |
| 2026-05-04 22:55 | 44.80977 | -64.81098 | 17253 ft | 458 kts | 71° |
| 2026-05-04 22:55 | 44.81843 | -64.76803 | 16714 ft | 454 kts | 71° |
| 2026-05-04 22:56 | 44.82694 | -64.72581 | 16188 ft | 451 kts | 71° |
| 2026-05-04 22:56 | 44.83545 | -64.68350 | 15651 ft | 448 kts | 71° |
| 2026-05-04 22:56 | 44.84392 | -64.64133 | 15118 ft | 445 kts | 71° |
| 2026-05-04 22:56 | 44.85229 | -64.59955 | 14590 ft | 442 kts | 71° |
| 2026-05-04 22:57 | 44.86058 | -64.55807 | 14129 ft | 437 kts | 72° |
| 2026-05-04 22:57 | 44.86875 | -64.51710 | 13690 ft | 432 kts | 72° |
| 2026-05-04 22:57 | 44.87685 | -64.47643 | 13201 ft | 428 kts | 72° |
| 2026-05-04 22:57 | 44.88486 | -64.43608 | 12670 ft | 425 kts | 72° |
| 2026-05-04 22:58 | 44.89277 | -64.39617 | 12157 ft | 421 kts | 72° |
| 2026-05-04 22:58 | 44.90062 | -64.35652 | 11727 ft | 417 kts | 72° |
| 2026-05-04 22:58 | 44.90827 | -64.31770 | 11593 ft | 404 kts | 72° |
| 2026-05-04 22:58 | 44.91566 | -64.28014 | 11512 ft | 391 kts | 72° |
| 2026-05-04 22:59 | 44.92282 | -64.24367 | 11416 ft | 379 kts | 72° |
| 2026-05-04 22:59 | 44.92966 | -64.20879 | 11322 ft | 366 kts | 72° |
| 2026-05-04 22:59 | 44.93629 | -64.17489 | 11192 ft | 349 kts | 72° |
| 2026-05-04 22:59 | 44.94265 | -64.14238 | 11021 ft | 336 kts | 72° |
| 2026-05-04 23:00 | 44.94878 | -64.11096 | 10732 ft | 328 kts | 72° |
| 2026-05-04 23:00 | 44.95280 | -64.09041 | 10528 ft | 328 kts | 72° |
| 2026-05-04 23:00 | 44.95886 | -64.05941 | 10272 ft | 326 kts | 72° |
| 2026-05-04 23:00 | 44.96486 | -64.02865 | 10016 ft | 324 kts | 72° |
| 2026-05-04 23:01 | 44.97082 | -63.99800 | 9752 ft | 323 kts | 72° |
| 2026-05-04 23:01 | 44.97674 | -63.96747 | 9475 ft | 321 kts | 72° |
| 2026-05-04 23:01 | 44.98263 | -63.93709 | 9182 ft | 320 kts | 72° |
| 2026-05-04 23:01 | 44.98847 | -63.90684 | 8873 ft | 319 kts | 72° |
| 2026-05-04 23:02 | 44.99416 | -63.87736 | 8581 ft | 318 kts | 72° |
| 2026-05-04 23:02 | 44.99988 | -63.84767 | 8339 ft | 315 kts | 72° |
| 2026-05-04 23:02 | 45.00562 | -63.81783 | 8072 ft | 314 kts | 72° |
| 2026-05-04 23:02 | 45.01135 | -63.78801 | 7774 ft | 315 kts | 72° |
| 2026-05-04 23:03 | 45.01706 | -63.75822 | 7487 ft | 313 kts | 72° |
| 2026-05-04 23:03 | 45.02274 | -63.72855 | 7158 ft | 314 kts | 72° |
| 2026-05-04 23:03 | 45.02847 | -63.69863 | 6777 ft | 314 kts | 72° |
| 2026-05-04 23:03 | 45.03415 | -63.66887 | 6372 ft | 312 kts | 72° |
| 2026-05-04 23:04 | 45.03978 | -63.63931 | 5964 ft | 310 kts | 72° |
| 2026-05-04 23:04 | 45.04531 | -63.61025 | 5530 ft | 309 kts | 73° |
| 2026-05-04 23:04 | 45.05088 | -63.58095 | 5098 ft | 307 kts | 73° |
| 2026-05-04 23:04 | 45.05631 | -63.55232 | 4640 ft | 297 kts | 73° |
| 2026-05-04 23:05 | 45.06156 | -63.52457 | 4294 ft | 282 kts | 73° |
| 2026-05-04 23:05 | 45.06640 | -63.49892 | 4167 ft | 258 kts | 73° |
| 2026-05-04 23:05 | 45.06984 | -63.47494 | 4009 ft | 245 kts | 94° |
| 2026-05-04 23:05 | 45.06583 | -63.45258 | 3897 ft | 228 kts | 125° |
| 2026-05-04 23:06 | 45.05767 | -63.43426 | 3700 ft | 215 kts | 134° |
| 2026-05-04 23:06 | 45.04904 | -63.41722 | 3489 ft | 211 kts | 135° |
| 2026-05-04 23:06 | 45.04054 | -63.40052 | 3276 ft | 208 kts | 134° |
| 2026-05-04 23:06 | 45.03062 | -63.38669 | 3071 ft | 192 kts | 165° |
| 2026-05-04 23:07 | 45.01869 | -63.38486 | 2946 ft | 165 kts | 208° |
| 2026-05-04 23:07 | 45.00827 | -63.39150 | 2828 ft | 166 kts | 213° |
| 2026-05-04 23:07 | 44.99806 | -63.39897 | 2670 ft | 164 kts | 215° |
| 2026-05-04 23:07 | 44.98830 | -63.40667 | 2509 ft | 157 kts | 219° |
| 2026-05-04 23:08 | 44.97940 | -63.41483 | 2385 ft | 154 kts | 221° |
| 2026-05-04 23:08 | 44.97054 | -63.42346 | 2256 ft | 155 kts | 221° |
| 2026-05-04 23:08 | 44.96191 | -63.43196 | 2169 ft | 149 kts | 221° |
| 2026-05-04 23:08 | 44.95339 | -63.44041 | 2058 ft | 150 kts | 221° |
| 2026-05-04 23:09 | 44.94495 | -63.44876 | 1865 ft | 146 kts | 221° |
| 2026-05-04 23:09 | 44.93678 | -63.45684 | 1656 ft | 139 kts | 221° |
| 2026-05-04 23:09 | 44.92904 | -63.46450 | 1471 ft | 133 kts | 222° |
| 2026-05-04 23:09 | 44.92143 | -63.47208 | 1302 ft | 136 kts | 220° |
| 2026-05-04 23:10 | 44.91369 | -63.47973 | 1103 ft | 138 kts | 220° |
| 2026-05-04 23:10 | 44.90558 | -63.48776 | 928 ft | 143 kts | 220° |
| 2026-05-04 23:10 | 44.89759 | -63.49559 | 722 ft | 140 kts | 218° |
| 2026-05-04 23:10 | 44.88979 | -63.50327 | 541 ft | 134 kts | 220° |
| 2026-05-04 23:11 | 44.88240 | -63.51062 | 449 ft | 122 kts | 220° |
| 2026-05-04 23:11 | 44.87720 | -63.51588 | 450 ft | 61 kts | 215° |
| 2026-05-04 23:11 | 44.87521 | -63.51790 | 448 ft | 26 kts | 218° |
| 2026-05-04 23:11 | 44.87449 | -63.52014 | 450 ft | 22 kts | 274° |
| 2026-05-04 23:12 | 44.87536 | -63.52096 | 451 ft | 16 kts | 30° |
| 2026-05-04 23:12 | 44.87647 | -63.51987 | 451 ft | 23 kts | 37° |
| 2026-05-04 23:12 | 44.87775 | -63.51861 | 451 ft | 22 kts | 34° |
| 2026-05-04 23:12 | 44.87900 | -63.51739 | 451 ft | 21 kts | 36° |
| 2026-05-04 23:13 | 44.88020 | -63.51619 | 451 ft | 21 kts | 34° |
| 2026-05-04 23:13 | 44.88137 | -63.51503 | 451 ft | 20 kts | 35° |
| 2026-05-04 23:13 | 44.88251 | -63.51390 | 451 ft | 20 kts | 34° |
| 2026-05-04 23:13 | 44.88360 | -63.51280 | 450 ft | 19 kts | 37° |
| 2026-05-04 23:14 | 44.88467 | -63.51208 | 451 ft | 17 kts | 354° |
| 2026-05-04 23:14 | 44.88582 | -63.51233 | 451 ft | 16 kts | 350° |
| 2026-05-04 23:14 | 44.88692 | -63.51262 | 451 ft | 16 kts | 349° |
| 2026-05-04 23:14 | 44.88776 | -63.51282 | 451 ft | 12 kts | 349° |
| 2026-05-04 23:15 | 44.88854 | -63.51303 | 451 ft | 10 kts | 348° |
| 2026-05-04 23:15 | 44.88881 | -63.51351 | 450 ft | 6 kts | 256° |
| 2026-05-04 23:15 | 44.88861 | -63.51407 | 450 ft | 6 kts | 241° |
| 2026-05-04 23:15 | 44.88854 | -63.51424 | 451 ft | 0 kts | 240° |